sensor_id;sensor_type;location;lat;lon;timestamp;P1;durP1;ratioP1;P2;durP2;ratioP2
48859;SDS011;34679;51.436;-2.518;2022-11-20T00:01:33;12.70;;;5.30;;
48859;SDS011;34679;51.436;-2.518;2022-11-20T00:03:58;11.05;;;6.00;;
48859;SDS011;34679;51.436;-2.518;2022-11-20T00:06:25;19.40;;;5.45;;
48859;SDS011;34679;51.436;-2.518;2022-11-20T00:08:53;16.67;;;4.95;;
48859;SDS011;34679;51.436;-2.518;2022-11-20T00:11:21;12.88;;;4.90;;
48859;SDS011;34679;51.436;-2.518;2022-11-20T00:13:49;13.77;;;5.05;;
48859;SDS011;34679;51.436;-2.518;2022-11-20T00:16:17;12.00;;;5.15;;
48859;SDS011;34679;51.436;-2.518;2022-11-20T00:18:45;12.07;;;5.20;;
48859;SDS011;34679;51.436;-2.518;2022-11-20T00:21:21;25.35;;;6.30;;
48859;SDS011;34679;51.436;-2.518;2022-11-20T00:23:48;14.65;;;5.30;;
48859;SDS011;34679;51.436;-2.518;2022-11-20T00:26:16;14.68;;;5.43;;
48859;SDS011;34679;51.436;-2.518;2022-11-20T00:28:43;15.27;;;5.15;;
48859;SDS011;34679;51.436;-2.518;2022-11-20T00:31:13;10.65;;;5.47;;
48859;SDS011;34679;51.436;-2.518;2022-11-20T00:33:40;13.35;;;5.88;;
48859;SDS011;34679;51.436;-2.518;2022-11-20T00:36:08;11.95;;;5.53;;
48859;SDS011;34679;51.436;-2.518;2022-11-20T00:38:35;11.15;;;5.25;;
48859;SDS011;34679;51.436;-2.518;2022-11-20T00:41:03;12.73;;;5.05;;
48859;SDS011;34679;51.436;-2.518;2022-11-20T00:43:30;11.88;;;5.93;;
48859;SDS011;34679;51.436;-2.518;2022-11-20T00:46:16;12.60;;;4.90;;
48859;SDS011;34679;51.436;-2.518;2022-11-20T00:48:43;9.93;;;5.95;;
48859;SDS011;34679;51.436;-2.518;2022-11-20T00:51:10;15.45;;;5.95;;
48859;SDS011;34679;51.436;-2.518;2022-11-20T00:53:38;14.57;;;5.85;;
48859;SDS011;34679;51.436;-2.518;2022-11-20T00:56:09;11.70;;;6.00;;
48859;SDS011;34679;51.436;-2.518;2022-11-20T00:58:37;11.65;;;4.70;;
48859;SDS011;34679;51.436;-2.518;2022-11-20T01:03:36;11.48;;;6.63;;
48859;SDS011;34679;51.436;-2.518;2022-11-20T01:06:04;7.93;;;6.07;;
48859;SDS011;34679;51.436;-2.518;2022-11-20T01:08:32;13.65;;;6.80;;
48859;SDS011;34679;51.436;-2.518;2022-11-20T01:11:03;14.73;;;7.03;;
48859;SDS011;34679;51.436;-2.518;2022-11-20T01:13:30;13.80;;;6.20;;
48859;SDS011;34679;51.436;-2.518;2022-11-20T01:16:06;17.60;;;6.57;;
48859;SDS011;34679;51.436;-2.518;2022-11-20T01:18:32;17.08;;;6.50;;
48859;SDS011;34679;51.436;-2.518;2022-11-20T01:21:00;12.65;;;6.38;;
48859;SDS011;34679;51.436;-2.518;2022-11-20T01:23:30;13.45;;;7.40;;
48859;SDS011;34679;51.436;-2.518;2022-11-20T01:25:56;15.10;;;7.35;;
48859;SDS011;34679;51.436;-2.518;2022-11-20T01:28:25;12.57;;;7.07;;
48859;SDS011;34679;51.436;-2.518;2022-11-20T01:30:51;14.85;;;7.65;;
48859;SDS011;34679;51.436;-2.518;2022-11-20T01:33:16;19.10;;;5.70;;
48859;SDS011;34679;51.436;-2.518;2022-11-20T01:35:42;9.07;;;6.78;;
48859;SDS011;34679;51.436;-2.518;2022-11-20T01:38:08;8.80;;;6.85;;
48859;SDS011;34679;51.436;-2.518;2022-11-20T01:40:33;11.98;;;6.63;;
48859;SDS011;34679;51.436;-2.518;2022-11-20T01:48:30;11.93;;;5.82;;
48859;SDS011;34679;51.436;-2.518;2022-11-20T01:51:04;10.75;;;6.88;;
48859;SDS011;34679;51.436;-2.518;2022-11-20T01:53:37;10.35;;;6.15;;
48859;SDS011;34679;51.436;-2.518;2022-11-20T01:56:03;11.60;;;6.53;;
48859;SDS011;34679;51.436;-2.518;2022-11-20T01:58:35;9.27;;;6.55;;
48859;SDS011;34679;51.436;-2.518;2022-11-20T02:01:02;10.57;;;6.53;;
48859;SDS011;34679;51.436;-2.518;2022-11-20T02:03:29;10.52;;;6.95;;
48859;SDS011;34679;51.436;-2.518;2022-11-20T02:06:57;11.30;;;7.15;;
48859;SDS011;34679;51.436;-2.518;2022-11-20T02:08:52;11.57;;;6.47;;
48859;SDS011;34679;51.436;-2.518;2022-11-20T02:11:19;8.10;;;5.82;;
48859;SDS011;34679;51.436;-2.518;2022-11-20T02:13:45;10.57;;;6.90;;
48859;SDS011;34679;51.436;-2.518;2022-11-20T02:16:25;7.53;;;5.75;;
48859;SDS011;34679;51.436;-2.518;2022-11-20T02:18:54;9.32;;;5.55;;
48859;SDS011;34679;51.436;-2.518;2022-11-20T02:24:03;7.30;;;5.65;;
48859;SDS011;34679;51.436;-2.518;2022-11-20T02:26:43;9.05;;;5.68;;
48859;SDS011;34679;51.436;-2.518;2022-11-20T02:29:31;6.67;;;5.70;;
48859;SDS011;34679;51.436;-2.518;2022-11-20T02:32:00;11.90;;;5.40;;
48859;SDS011;34679;51.436;-2.518;2022-11-20T02:34:27;6.80;;;5.82;;
48859;SDS011;34679;51.436;-2.518;2022-11-20T02:36:53;7.13;;;5.82;;
48859;SDS011;34679;51.436;-2.518;2022-11-20T02:39:20;6.90;;;5.95;;
48859;SDS011;34679;51.436;-2.518;2022-11-20T02:41:49;5.95;;;5.40;;
48859;SDS011;34679;51.436;-2.518;2022-11-20T02:44:18;7.85;;;5.72;;
48859;SDS011;34679;51.436;-2.518;2022-11-20T02:46:44;8.18;;;5.90;;
48859;SDS011;34679;51.436;-2.518;2022-11-20T02:49:10;8.00;;;5.72;;
48859;SDS011;34679;51.436;-2.518;2022-11-20T02:51:36;6.40;;;4.80;;
48859;SDS011;34679;51.436;-2.518;2022-11-20T02:54:02;8.68;;;5.53;;
48859;SDS011;34679;51.436;-2.518;2022-11-20T02:56:28;9.63;;;5.90;;
48859;SDS011;34679;51.436;-2.518;2022-11-20T02:58:54;5.60;;;5.10;;
48859;SDS011;34679;51.436;-2.518;2022-11-20T03:01:20;6.60;;;5.68;;
48859;SDS011;34679;51.436;-2.518;2022-11-20T03:03:46;8.07;;;5.53;;
48859;SDS011;34679;51.436;-2.518;2022-11-20T03:06:13;5.75;;;5.22;;
48859;SDS011;34679;51.436;-2.518;2022-11-20T03:08:40;9.48;;;5.00;;
48859;SDS011;34679;51.436;-2.518;2022-11-20T03:11:06;7.75;;;6.10;;
48859;SDS011;34679;51.436;-2.518;2022-11-20T03:13:33;9.18;;;5.78;;
48859;SDS011;34679;51.436;-2.518;2022-11-20T03:16:04;10.48;;;6.13;;
48859;SDS011;34679;51.436;-2.518;2022-11-20T03:18:31;8.45;;;6.80;;
48859;SDS011;34679;51.436;-2.518;2022-11-20T03:20:57;6.63;;;5.95;;
48859;SDS011;34679;51.436;-2.518;2022-11-20T03:23:24;7.45;;;6.28;;
48859;SDS011;34679;51.436;-2.518;2022-11-20T03:25:50;8.07;;;6.65;;
48859;SDS011;34679;51.436;-2.518;2022-11-20T03:28:16;6.68;;;6.03;;
48859;SDS011;34679;51.436;-2.518;2022-11-20T03:30:41;7.32;;;6.53;;
48859;SDS011;34679;51.436;-2.518;2022-11-20T03:33:07;7.03;;;6.10;;
48859;SDS011;34679;51.436;-2.518;2022-11-20T03:35:33;7.22;;;6.32;;
48859;SDS011;34679;51.436;-2.518;2022-11-20T03:37:58;9.85;;;6.15;;
48859;SDS011;34679;51.436;-2.518;2022-11-20T03:40:24;11.05;;;6.03;;
48859;SDS011;34679;51.436;-2.518;2022-11-20T03:42:50;6.18;;;4.93;;
48859;SDS011;34679;51.436;-2.518;2022-11-20T03:45:16;4.00;;;3.65;;
48859;SDS011;34679;51.436;-2.518;2022-11-20T03:47:43;5.88;;;4.32;;
48859;SDS011;34679;51.436;-2.518;2022-11-20T03:50:09;4.75;;;4.35;;
48859;SDS011;34679;51.436;-2.518;2022-11-20T03:52:37;5.82;;;4.65;;
48859;SDS011;34679;51.436;-2.518;2022-11-20T03:55:04;8.80;;;5.53;;
48859;SDS011;34679;51.436;-2.518;2022-11-20T03:57:30;8.55;;;5.50;;
48859;SDS011;34679;51.436;-2.518;2022-11-20T03:59:56;8.77;;;5.00;;
48859;SDS011;34679;51.436;-2.518;2022-11-20T04:02:21;7.75;;;6.35;;
48859;SDS011;34679;51.436;-2.518;2022-11-20T04:04:47;7.28;;;5.65;;
48859;SDS011;34679;51.436;-2.518;2022-11-20T04:07:13;4.95;;;4.45;;
48859;SDS011;34679;51.436;-2.518;2022-11-20T04:09:38;6.13;;;4.85;;
48859;SDS011;34679;51.436;-2.518;2022-11-20T04:12:04;5.20;;;4.35;;
48859;SDS011;34679;51.436;-2.518;2022-11-20T04:14:30;7.05;;;4.45;;
48859;SDS011;34679;51.436;-2.518;2022-11-20T04:16:55;6.40;;;4.78;;
48859;SDS011;34679;51.436;-2.518;2022-11-20T04:19:21;5.80;;;4.25;;
48859;SDS011;34679;51.436;-2.518;2022-11-20T04:21:47;6.03;;;4.50;;
48859;SDS011;34679;51.436;-2.518;2022-11-20T04:24:12;6.00;;;4.20;;
48859;SDS011;34679;51.436;-2.518;2022-11-20T04:26:39;5.20;;;4.00;;
48859;SDS011;34679;51.436;-2.518;2022-11-20T04:29:05;7.40;;;4.40;;
48859;SDS011;34679;51.436;-2.518;2022-11-20T04:31:31;7.68;;;4.70;;
48859;SDS011;34679;51.436;-2.518;2022-11-20T04:33:59;4.22;;;3.83;;
48859;SDS011;34679;51.436;-2.518;2022-11-20T04:36:27;4.45;;;4.07;;
48859;SDS011;34679;51.436;-2.518;2022-11-20T04:39:01;7.32;;;3.78;;
48859;SDS011;34679;51.436;-2.518;2022-11-20T04:41:29;4.18;;;3.78;;
48859;SDS011;34679;51.436;-2.518;2022-11-20T04:43:57;6.13;;;2.65;;
48859;SDS011;34679;51.436;-2.518;2022-11-20T04:46:28;11.82;;;2.75;;
48859;SDS011;34679;51.436;-2.518;2022-11-20T04:49:05;3.65;;;1.60;;
48859;SDS011;34679;51.436;-2.518;2022-11-20T04:51:32;4.72;;;2.00;;
48859;SDS011;34679;51.436;-2.518;2022-11-20T04:53:58;9.57;;;1.70;;
48859;SDS011;34679;51.436;-2.518;2022-11-20T04:56:24;11.45;;;1.50;;
48859;SDS011;34679;51.436;-2.518;2022-11-20T04:58:50;4.97;;;1.55;;
48859;SDS011;34679;51.436;-2.518;2022-11-20T05:01:17;7.78;;;1.75;;
48859;SDS011;34679;51.436;-2.518;2022-11-20T05:03:44;14.60;;;2.95;;
48859;SDS011;34679;51.436;-2.518;2022-11-20T05:06:15;9.90;;;1.98;;
48859;SDS011;34679;51.436;-2.518;2022-11-20T05:08:42;5.78;;;1.73;;
48859;SDS011;34679;51.436;-2.518;2022-11-20T05:11:12;6.40;;;2.17;;
48859;SDS011;34679;51.436;-2.518;2022-11-20T05:13:39;6.03;;;1.77;;
48859;SDS011;34679;51.436;-2.518;2022-11-20T05:16:09;9.38;;;1.98;;
48859;SDS011;34679;51.436;-2.518;2022-11-20T05:18:36;6.60;;;2.30;;
48859;SDS011;34679;51.436;-2.518;2022-11-20T05:21:02;12.50;;;2.70;;
48859;SDS011;34679;51.436;-2.518;2022-11-20T05:23:29;5.32;;;2.05;;
48859;SDS011;34679;51.436;-2.518;2022-11-20T05:25:56;12.20;;;3.10;;
48859;SDS011;34679;51.436;-2.518;2022-11-20T05:28:22;13.82;;;2.72;;
48859;SDS011;34679;51.436;-2.518;2022-11-20T05:30:49;6.38;;;2.53;;
48859;SDS011;34679;51.436;-2.518;2022-11-20T05:33:15;17.83;;;3.20;;
48859;SDS011;34679;51.436;-2.518;2022-11-20T05:35:41;10.02;;;3.30;;
48859;SDS011;34679;51.436;-2.518;2022-11-20T05:38:07;15.18;;;3.40;;
48859;SDS011;34679;51.436;-2.518;2022-11-20T05:40:33;14.27;;;3.78;;
48859;SDS011;34679;51.436;-2.518;2022-11-20T05:42:59;14.27;;;3.92;;
48859;SDS011;34679;51.436;-2.518;2022-11-20T05:45:25;12.38;;;3.40;;
48859;SDS011;34679;51.436;-2.518;2022-11-20T05:47:51;16.00;;;3.80;;
48859;SDS011;34679;51.436;-2.518;2022-11-20T05:50:16;14.13;;;3.72;;
48859;SDS011;34679;51.436;-2.518;2022-11-20T05:52:42;14.35;;;3.55;;
48859;SDS011;34679;51.436;-2.518;2022-11-20T05:55:08;15.55;;;3.53;;
48859;SDS011;34679;51.436;-2.518;2022-11-20T05:57:34;17.05;;;3.22;;
48859;SDS011;34679;51.436;-2.518;2022-11-20T06:00:00;16.95;;;3.67;;
48859;SDS011;34679;51.436;-2.518;2022-11-20T06:02:26;23.70;;;3.70;;
48859;SDS011;34679;51.436;-2.518;2022-11-20T06:04:51;17.38;;;3.58;;
48859;SDS011;34679;51.436;-2.518;2022-11-20T06:07:17;22.17;;;3.53;;
48859;SDS011;34679;51.436;-2.518;2022-11-20T06:09:43;19.25;;;3.03;;
48859;SDS011;34679;51.436;-2.518;2022-11-20T06:12:08;24.77;;;3.50;;
48859;SDS011;34679;51.436;-2.518;2022-11-20T06:14:34;20.73;;;3.63;;
48859;SDS011;34679;51.436;-2.518;2022-11-20T06:17:00;39.20;;;4.95;;
48859;SDS011;34679;51.436;-2.518;2022-11-20T06:19:25;27.35;;;4.40;;
48859;SDS011;34679;51.436;-2.518;2022-11-20T06:21:51;31.73;;;4.43;;
48859;SDS011;34679;51.436;-2.518;2022-11-20T06:24:17;28.73;;;4.20;;
48859;SDS011;34679;51.436;-2.518;2022-11-20T06:26:43;22.52;;;4.05;;
48859;SDS011;34679;51.436;-2.518;2022-11-20T06:29:09;33.10;;;4.45;;
48859;SDS011;34679;51.436;-2.518;2022-11-20T06:31:34;35.40;;;5.80;;
48859;SDS011;34679;51.436;-2.518;2022-11-20T06:34:03;32.33;;;4.60;;
48859;SDS011;34679;51.436;-2.518;2022-11-20T06:36:30;33.00;;;4.78;;
48859;SDS011;34679;51.436;-2.518;2022-11-20T06:38:56;22.85;;;4.63;;
48859;SDS011;34679;51.436;-2.518;2022-11-20T06:41:22;33.65;;;4.60;;
48859;SDS011;34679;51.436;-2.518;2022-11-20T06:43:48;42.17;;;5.15;;
48859;SDS011;34679;51.436;-2.518;2022-11-20T06:46:15;27.60;;;4.32;;
48859;SDS011;34679;51.436;-2.518;2022-11-20T06:48:44;45.17;;;5.35;;
48859;SDS011;34679;51.436;-2.518;2022-11-20T06:51:11;38.47;;;5.60;;
48859;SDS011;34679;51.436;-2.518;2022-11-20T06:53:37;43.28;;;5.35;;
48859;SDS011;34679;51.436;-2.518;2022-11-20T06:56:03;41.65;;;4.93;;
48859;SDS011;34679;51.436;-2.518;2022-11-20T06:58:30;51.58;;;6.43;;
48859;SDS011;34679;51.436;-2.518;2022-11-20T07:01:01;48.53;;;5.88;;
48859;SDS011;34679;51.436;-2.518;2022-11-20T07:03:31;40.22;;;6.20;;
48859;SDS011;34679;51.436;-2.518;2022-11-20T07:05:57;43.67;;;5.93;;
48859;SDS011;34679;51.436;-2.518;2022-11-20T07:08:24;45.38;;;6.78;;
48859;SDS011;34679;51.436;-2.518;2022-11-20T07:10:50;44.25;;;6.20;;
48859;SDS011;34679;51.436;-2.518;2022-11-20T07:13:16;60.85;;;6.78;;
48859;SDS011;34679;51.436;-2.518;2022-11-20T07:15:42;37.33;;;6.22;;
48859;SDS011;34679;51.436;-2.518;2022-11-20T07:18:08;60.67;;;6.88;;
48859;SDS011;34679;51.436;-2.518;2022-11-20T07:20:33;55.60;;;7.10;;
48859;SDS011;34679;51.436;-2.518;2022-11-20T07:22:59;48.85;;;6.57;;
48859;SDS011;34679;51.436;-2.518;2022-11-20T07:25:25;43.80;;;7.05;;
48859;SDS011;34679;51.436;-2.518;2022-11-20T07:27:52;64.00;;;7.57;;
48859;SDS011;34679;51.436;-2.518;2022-11-20T07:30:21;52.85;;;7.00;;
48859;SDS011;34679;51.436;-2.518;2022-11-20T07:32:47;48.13;;;6.07;;
48859;SDS011;34679;51.436;-2.518;2022-11-20T07:35:16;44.92;;;7.40;;
48859;SDS011;34679;51.436;-2.518;2022-11-20T07:37:42;47.13;;;7.07;;
48859;SDS011;34679;51.436;-2.518;2022-11-20T07:40:08;41.08;;;6.18;;
48859;SDS011;34679;51.436;-2.518;2022-11-20T07:42:34;46.85;;;7.35;;
48859;SDS011;34679;51.436;-2.518;2022-11-20T07:45:00;53.60;;;6.68;;
48859;SDS011;34679;51.436;-2.518;2022-11-20T07:47:25;40.53;;;6.38;;
48859;SDS011;34679;51.436;-2.518;2022-11-20T07:49:51;34.03;;;5.13;;
48859;SDS011;34679;51.436;-2.518;2022-11-20T07:52:17;44.97;;;6.97;;
48859;SDS011;34679;51.436;-2.518;2022-11-20T07:54:42;75.10;;;10.93;;
48859;SDS011;34679;51.436;-2.518;2022-11-20T07:57:08;46.90;;;7.43;;
48859;SDS011;34679;51.436;-2.518;2022-11-20T07:59:34;51.88;;;8.35;;
48859;SDS011;34679;51.436;-2.518;2022-11-20T08:01:59;53.35;;;7.70;;
48859;SDS011;34679;51.436;-2.518;2022-11-20T08:04:25;56.60;;;9.98;;
48859;SDS011;34679;51.436;-2.518;2022-11-20T08:06:53;44.35;;;8.93;;
48859;SDS011;34679;51.436;-2.518;2022-11-20T08:09:19;48.20;;;8.63;;
48859;SDS011;34679;51.436;-2.518;2022-11-20T08:11:45;35.00;;;7.95;;
48859;SDS011;34679;51.436;-2.518;2022-11-20T08:14:29;26.10;;;6.22;;
48859;SDS011;34679;51.436;-2.518;2022-11-20T08:16:54;37.45;;;7.68;;
48859;SDS011;34679;51.436;-2.518;2022-11-20T08:19:20;42.97;;;8.70;;
48859;SDS011;34679;51.436;-2.518;2022-11-20T08:21:46;43.05;;;7.18;;
48859;SDS011;34679;51.436;-2.518;2022-11-20T08:24:11;55.15;;;8.63;;
48859;SDS011;34679;51.436;-2.518;2022-11-20T08:26:38;44.78;;;9.43;;
48859;SDS011;34679;51.436;-2.518;2022-11-20T08:29:04;39.17;;;8.45;;
48859;SDS011;34679;51.436;-2.518;2022-11-20T08:31:30;33.67;;;7.00;;
48859;SDS011;34679;51.436;-2.518;2022-11-20T08:33:56;46.88;;;8.57;;
48859;SDS011;34679;51.436;-2.518;2022-11-20T08:36:23;36.33;;;5.82;;
48859;SDS011;34679;51.436;-2.518;2022-11-20T08:38:49;33.50;;;5.32;;
48859;SDS011;34679;51.436;-2.518;2022-11-20T08:41:16;33.55;;;5.10;;
48859;SDS011;34679;51.436;-2.518;2022-11-20T08:43:49;43.20;;;5.63;;
48859;SDS011;34679;51.436;-2.518;2022-11-20T08:46:15;40.20;;;6.35;;
48859;SDS011;34679;51.436;-2.518;2022-11-20T08:48:41;53.95;;;7.85;;
48859;SDS011;34679;51.436;-2.518;2022-11-20T08:51:08;54.13;;;9.68;;
48859;SDS011;34679;51.436;-2.518;2022-11-20T08:53:34;47.30;;;5.93;;
48859;SDS011;34679;51.436;-2.518;2022-11-20T08:56:00;29.23;;;6.22;;
48859;SDS011;34679;51.436;-2.518;2022-11-20T08:58:25;36.00;;;6.30;;
48859;SDS011;34679;51.436;-2.518;2022-11-20T09:00:51;27.60;;;4.43;;
48859;SDS011;34679;51.436;-2.518;2022-11-20T09:03:17;23.38;;;4.55;;
48859;SDS011;34679;51.436;-2.518;2022-11-20T09:05:43;29.95;;;6.05;;
48859;SDS011;34679;51.436;-2.518;2022-11-20T09:08:09;24.08;;;3.97;;
48859;SDS011;34679;51.436;-2.518;2022-11-20T09:10:35;23.88;;;4.45;;
48859;SDS011;34679;51.436;-2.518;2022-11-20T09:13:01;31.05;;;4.88;;
48859;SDS011;34679;51.436;-2.518;2022-11-20T09:15:27;21.48;;;4.45;;
48859;SDS011;34679;51.436;-2.518;2022-11-20T09:17:53;33.70;;;5.03;;
48859;SDS011;34679;51.436;-2.518;2022-11-20T09:20:21;32.08;;;6.32;;
48859;SDS011;34679;51.436;-2.518;2022-11-20T09:22:47;31.42;;;4.72;;
48859;SDS011;34679;51.436;-2.518;2022-11-20T09:25:13;24.92;;;5.68;;
48859;SDS011;34679;51.436;-2.518;2022-11-20T09:27:39;25.20;;;4.20;;
48859;SDS011;34679;51.436;-2.518;2022-11-20T09:30:06;34.35;;;4.72;;
48859;SDS011;34679;51.436;-2.518;2022-11-20T09:32:32;40.83;;;5.30;;
48859;SDS011;34679;51.436;-2.518;2022-11-20T09:34:58;34.42;;;4.95;;
48859;SDS011;34679;51.436;-2.518;2022-11-20T09:37:24;37.70;;;5.50;;
48859;SDS011;34679;51.436;-2.518;2022-11-20T09:39:50;34.42;;;5.55;;
48859;SDS011;34679;51.436;-2.518;2022-11-20T09:45:16;26.95;;;4.90;;
48859;SDS011;34679;51.436;-2.518;2022-11-20T09:56:14;44.90;;;5.82;;
48859;SDS011;34679;51.436;-2.518;2022-11-20T09:59:05;32.85;;;5.10;;
48859;SDS011;34679;51.436;-2.518;2022-11-20T10:01:32;29.55;;;5.43;;
48859;SDS011;34679;51.436;-2.518;2022-11-20T10:04:02;31.80;;;4.38;;
48859;SDS011;34679;51.436;-2.518;2022-11-20T10:06:37;31.55;;;6.05;;
48859;SDS011;34679;51.436;-2.518;2022-11-20T10:30:21;40.00;;;5.78;;
48859;SDS011;34679;51.436;-2.518;2022-11-20T10:32:54;36.80;;;5.55;;
48859;SDS011;34679;51.436;-2.518;2022-11-20T10:35:33;30.02;;;4.68;;
48859;SDS011;34679;51.436;-2.518;2022-11-20T10:38:24;30.38;;;6.30;;
48859;SDS011;34679;51.436;-2.518;2022-11-20T10:41:01;32.13;;;4.63;;
48859;SDS011;34679;51.436;-2.518;2022-11-20T10:43:46;18.95;;;3.95;;
48859;SDS011;34679;51.436;-2.518;2022-11-20T10:46:18;28.77;;;4.25;;
48859;SDS011;34679;51.436;-2.518;2022-11-20T10:48:49;25.33;;;5.40;;
48859;SDS011;34679;51.436;-2.518;2022-11-20T10:51:18;32.55;;;5.60;;
48859;SDS011;34679;51.436;-2.518;2022-11-20T11:02:21;30.02;;;4.07;;
48859;SDS011;34679;51.436;-2.518;2022-11-20T11:04:49;25.70;;;3.97;;
48859;SDS011;34679;51.436;-2.518;2022-11-20T11:07:30;24.98;;;3.80;;
48859;SDS011;34679;51.436;-2.518;2022-11-20T11:10:18;30.33;;;5.40;;
48859;SDS011;34679;51.436;-2.518;2022-11-20T11:12:47;26.27;;;4.35;;
48859;SDS011;34679;51.436;-2.518;2022-11-20T11:15:14;32.55;;;4.47;;
48859;SDS011;34679;51.436;-2.518;2022-11-20T11:18:10;23.92;;;5.25;;
48859;SDS011;34679;51.436;-2.518;2022-11-20T11:20:36;24.80;;;4.65;;
48859;SDS011;34679;51.436;-2.518;2022-11-20T11:23:02;32.30;;;6.72;;
48859;SDS011;34679;51.436;-2.518;2022-11-20T11:25:33;28.70;;;4.15;;
48859;SDS011;34679;51.436;-2.518;2022-11-20T11:28:17;27.52;;;4.82;;
48859;SDS011;34679;51.436;-2.518;2022-11-20T11:30:46;25.02;;;4.57;;
48859;SDS011;34679;51.436;-2.518;2022-11-20T11:33:24;23.50;;;5.05;;
48859;SDS011;34679;51.436;-2.518;2022-11-20T11:35:52;24.20;;;4.20;;
48859;SDS011;34679;51.436;-2.518;2022-11-20T11:38:23;31.65;;;5.22;;
48859;SDS011;34679;51.436;-2.518;2022-11-20T11:41:01;25.88;;;4.95;;
48859;SDS011;34679;51.436;-2.518;2022-11-20T11:43:30;23.45;;;3.63;;
48859;SDS011;34679;51.436;-2.518;2022-11-20T11:49:28;19.27;;;4.53;;
48859;SDS011;34679;51.436;-2.518;2022-11-20T11:57:05;30.75;;;5.03;;
48859;SDS011;34679;51.436;-2.518;2022-11-20T12:00:00;28.17;;;4.65;;
48859;SDS011;34679;51.436;-2.518;2022-11-20T12:07:53;23.10;;;3.92;;
48859;SDS011;34679;51.436;-2.518;2022-11-20T12:10:29;23.15;;;4.57;;
48859;SDS011;34679;51.436;-2.518;2022-11-20T12:13:15;28.02;;;4.53;;
48859;SDS011;34679;51.436;-2.518;2022-11-20T12:15:49;32.75;;;4.53;;
48859;SDS011;34679;51.436;-2.518;2022-11-20T12:18:19;24.60;;;4.07;;
48859;SDS011;34679;51.436;-2.518;2022-11-20T12:21:02;36.42;;;6.75;;
48859;SDS011;34679;51.436;-2.518;2022-11-20T12:26:48;28.73;;;3.85;;
48859;SDS011;34679;51.436;-2.518;2022-11-20T12:31:52;12.63;;;1.90;;
48859;SDS011;34679;51.436;-2.518;2022-11-20T12:43:01;15.02;;;3.47;;
48859;SDS011;34679;51.436;-2.518;2022-11-20T12:48:49;22.60;;;2.63;;
48859;SDS011;34679;51.436;-2.518;2022-11-20T12:54:03;15.32;;;2.72;;
48859;SDS011;34679;51.436;-2.518;2022-11-20T13:07:35;23.30;;;2.75;;
48859;SDS011;34679;51.436;-2.518;2022-11-20T13:10:01;15.38;;;1.40;;
48859;SDS011;34679;51.436;-2.518;2022-11-20T13:12:44;10.40;;;1.73;;
48859;SDS011;34679;51.436;-2.518;2022-11-20T13:15:34;13.27;;;2.28;;
48859;SDS011;34679;51.436;-2.518;2022-11-20T13:18:21;15.38;;;2.75;;
48859;SDS011;34679;51.436;-2.518;2022-11-20T13:20:47;9.95;;;1.63;;
48859;SDS011;34679;51.436;-2.518;2022-11-20T13:23:24;10.43;;;1.48;;
48859;SDS011;34679;51.436;-2.518;2022-11-20T13:26:02;10.85;;;2.33;;
48859;SDS011;34679;51.436;-2.518;2022-11-20T13:28:29;10.65;;;1.80;;
48859;SDS011;34679;51.436;-2.518;2022-11-20T13:30:55;11.48;;;1.55;;
48859;SDS011;34679;51.436;-2.518;2022-11-20T13:33:32;11.75;;;1.80;;
48859;SDS011;34679;51.436;-2.518;2022-11-20T13:36:01;16.98;;;2.40;;
48859;SDS011;34679;51.436;-2.518;2022-11-20T13:38:46;12.73;;;1.52;;
48859;SDS011;34679;51.436;-2.518;2022-11-20T13:47:22;9.45;;;1.38;;
48859;SDS011;34679;51.436;-2.518;2022-11-20T13:49:49;6.38;;;1.50;;
48859;SDS011;34679;51.436;-2.518;2022-11-20T14:00:44;8.05;;;1.20;;
48859;SDS011;34679;51.436;-2.518;2022-11-20T14:03:19;8.70;;;1.65;;
48859;SDS011;34679;51.436;-2.518;2022-11-20T14:05:54;9.88;;;2.03;;
48859;SDS011;34679;51.436;-2.518;2022-11-20T14:08:31;7.40;;;1.38;;
48859;SDS011;34679;51.436;-2.518;2022-11-20T14:11:04;12.52;;;1.65;;
48859;SDS011;34679;51.436;-2.518;2022-11-20T14:13:31;7.18;;;1.40;;
48859;SDS011;34679;51.436;-2.518;2022-11-20T14:15:57;7.32;;;1.10;;
48859;SDS011;34679;51.436;-2.518;2022-11-20T14:18:25;7.63;;;1.33;;
48859;SDS011;34679;51.436;-2.518;2022-11-20T14:20:51;6.25;;;0.95;;
48859;SDS011;34679;51.436;-2.518;2022-11-20T14:23:25;5.95;;;1.38;;
48859;SDS011;34679;51.436;-2.518;2022-11-20T14:25:51;7.20;;;1.40;;
48859;SDS011;34679;51.436;-2.518;2022-11-20T14:28:20;7.53;;;1.90;;
48859;SDS011;34679;51.436;-2.518;2022-11-20T14:30:51;3.40;;;1.23;;
48859;SDS011;34679;51.436;-2.518;2022-11-20T14:33:17;7.15;;;1.02;;
48859;SDS011;34679;51.436;-2.518;2022-11-20T14:35:48;5.20;;;1.35;;
48859;SDS011;34679;51.436;-2.518;2022-11-20T14:38:28;3.88;;;0.90;;
48859;SDS011;34679;51.436;-2.518;2022-11-20T14:41:07;6.63;;;2.10;;
48859;SDS011;34679;51.436;-2.518;2022-11-20T14:43:33;14.88;;;1.85;;
48859;SDS011;34679;51.436;-2.518;2022-11-20T14:46:03;11.50;;;1.98;;
48859;SDS011;34679;51.436;-2.518;2022-11-20T14:48:36;11.35;;;1.98;;
48859;SDS011;34679;51.436;-2.518;2022-11-20T14:51:11;11.13;;;1.92;;
48859;SDS011;34679;51.436;-2.518;2022-11-20T14:54:12;9.63;;;1.70;;
48859;SDS011;34679;51.436;-2.518;2022-11-20T14:56:59;9.32;;;2.13;;
48859;SDS011;34679;51.436;-2.518;2022-11-20T14:59:27;12.18;;;2.47;;
48859;SDS011;34679;51.436;-2.518;2022-11-20T15:02:01;14.73;;;3.00;;
48859;SDS011;34679;51.436;-2.518;2022-11-20T15:04:29;10.52;;;1.90;;
48859;SDS011;34679;51.436;-2.518;2022-11-20T15:06:55;22.95;;;2.67;;
48859;SDS011;34679;51.436;-2.518;2022-11-20T15:09:22;14.70;;;2.10;;
48859;SDS011;34679;51.436;-2.518;2022-11-20T15:11:58;16.40;;;2.20;;
48859;SDS011;34679;51.436;-2.518;2022-11-20T15:14:26;18.27;;;2.72;;
48859;SDS011;34679;51.436;-2.518;2022-11-20T15:16:53;10.05;;;1.95;;
48859;SDS011;34679;51.436;-2.518;2022-11-20T15:19:20;13.90;;;2.08;;
48859;SDS011;34679;51.436;-2.518;2022-11-20T15:21:47;13.68;;;2.30;;
48859;SDS011;34679;51.436;-2.518;2022-11-20T15:24:14;15.52;;;2.50;;
48859;SDS011;34679;51.436;-2.518;2022-11-20T15:26:40;15.82;;;3.20;;
48859;SDS011;34679;51.436;-2.518;2022-11-20T15:29:10;12.13;;;1.95;;
48859;SDS011;34679;51.436;-2.518;2022-11-20T15:31:38;12.32;;;1.98;;
48859;SDS011;34679;51.436;-2.518;2022-11-20T15:34:13;14.13;;;2.95;;
48859;SDS011;34679;51.436;-2.518;2022-11-20T15:36:39;10.68;;;1.42;;
48859;SDS011;34679;51.436;-2.518;2022-11-20T15:39:06;12.95;;;1.90;;
48859;SDS011;34679;51.436;-2.518;2022-11-20T15:41:36;11.73;;;2.83;;
48859;SDS011;34679;51.436;-2.518;2022-11-20T15:44:08;7.57;;;1.60;;
48859;SDS011;34679;51.436;-2.518;2022-11-20T15:46:35;8.93;;;1.58;;
48859;SDS011;34679;51.436;-2.518;2022-11-20T15:49:06;10.82;;;1.90;;
48859;SDS011;34679;51.436;-2.518;2022-11-20T15:51:39;12.68;;;2.33;;
48859;SDS011;34679;51.436;-2.518;2022-11-20T15:54:12;9.18;;;1.85;;
48859;SDS011;34679;51.436;-2.518;2022-11-20T15:56:41;16.27;;;2.53;;
48859;SDS011;34679;51.436;-2.518;2022-11-20T15:59:06;9.43;;;2.00;;
48859;SDS011;34679;51.436;-2.518;2022-11-20T16:01:32;11.95;;;1.50;;
48859;SDS011;34679;51.436;-2.518;2022-11-20T16:03:59;11.02;;;1.83;;
48859;SDS011;34679;51.436;-2.518;2022-11-20T16:06:26;7.72;;;2.10;;
48859;SDS011;34679;51.436;-2.518;2022-11-20T16:08:52;11.10;;;1.80;;
48859;SDS011;34679;51.436;-2.518;2022-11-20T16:11:18;7.50;;;2.22;;
48859;SDS011;34679;51.436;-2.518;2022-11-20T16:13:43;11.30;;;1.90;;
48859;SDS011;34679;51.436;-2.518;2022-11-20T16:16:29;8.60;;;1.85;;
48859;SDS011;34679;51.436;-2.518;2022-11-20T16:19:00;15.52;;;2.00;;
48859;SDS011;34679;51.436;-2.518;2022-11-20T16:21:26;5.57;;;1.50;;
48859;SDS011;34679;51.436;-2.518;2022-11-20T16:24:03;8.13;;;1.92;;
48859;SDS011;34679;51.436;-2.518;2022-11-20T16:26:30;9.65;;;1.77;;
48859;SDS011;34679;51.436;-2.518;2022-11-20T16:28:58;7.05;;;1.48;;